Time;durP1;ratioP1;P1;durP2;ratioP2;P2;SDS_P1;SDS_P2;PMS_P1;PMS_P2;Temp;Humidity;BMP_temperature;BMP_pressure;BME280_temperature;BME280_humidity;BME280_pressure;Samples;Min_cycle;Max_cycle;Signal;HPM_P1;HPM_P2
2022/07/27 00:01:53;;;;;;;5.07;1.63;;;;;;;18.19;71.62;100866.53;8352757;28;20040;-50
2022/07/27 00:05:53;;;;;;;8.18;1.67;;;;;;;18.14;71.96;100858.00;8354227;28;20519;-49
2022/07/27 00:09:54;;;;;;;6.13;2.17;;;;;;;18.16;71.88;100857.81;8355082;28;20473;-48
2022/07/27 00:13:54;;;;;;;5.10;1.55;;;;;;;18.13;72.29;100860.91;8354603;28;20075;-48
2022/07/27 00:17:59;;;;;;;8.98;1.83;;;;;;;18.11;72.35;100863.00;8354822;28;20127;-49
2022/07/27 00:22:00;;;;;;;8.05;1.75;;;;;;;18.03;72.78;100877.59;8351168;28;20504;-50
2022/07/27 00:26:00;;;;;;;6.07;1.88;;;;;;;18.02;73.16;100867.66;8354656;28;20408;-49
2022/07/27 00:30:01;;;;;;;6.25;1.80;;;;;;;17.90;73.97;100885.50;8354263;28;20084;-52
2022/07/27 00:34:01;;;;;;;4.22;1.20;;;;;;;17.82;74.30;100893.75;8354676;28;20294;-48
2022/07/27 00:38:02;;;;;;;5.18;2.10;;;;;;;17.75;74.44;100879.06;8347824;28;20041;-51
2022/07/27 00:42:02;;;;;;;12.23;1.90;;;;;;;17.72;74.74;100890.41;8353153;28;20159;-52
2022/07/27 00:46:02;;;;;;;5.15;1.65;;;;;;;17.76;74.56;100886.28;8354071;28;20121;-49
2022/07/27 00:50:04;;;;;;;4.45;1.17;;;;;;;17.73;75.00;100881.16;8354117;28;20068;-52
2022/07/27 00:54:05;;;;;;;7.10;1.77;;;;;;;17.68;75.25;100878.09;8352682;28;20042;-52
2022/07/27 00:58:07;;;;;;;6.53;2.25;;;;;;;17.69;75.56;100873.47;8353643;28;20036;-49
2022/07/27 01:02:08;;;;;;;5.50;1.67;;;;;;;17.61;75.74;100877.09;8353800;28;20041;-49
2022/07/27 01:06:09;;;;;;;7.68;1.58;;;;;;;17.59;76.72;100884.63;8350165;28;20344;-48
2022/07/27 01:10:10;;;;;;;5.57;1.67;;;;;;;17.44;77.07;100881.78;8350916;28;20076;-49
2022/07/27 01:14:12;;;;;;;6.43;1.17;;;;;;;17.28;77.44;100870.00;8353913;28;20043;-49
2022/07/27 01:18:29;;;;;;;7.03;1.70;;;;;;;17.16;77.87;100871.38;8354110;28;20029;-49
2022/07/27 01:22:30;;;;;;;3.63;1.40;;;;;;;17.10;77.95;100872.09;8352811;28;20056;-52
2022/07/27 01:26:32;;;;;;;8.80;1.10;;;;;;;17.01;78.61;100873.13;8353857;28;20048;-49
2022/07/27 01:30:34;;;;;;;8.38;1.23;;;;;;;16.96;79.02;100870.06;8353110;28;20060;-49
2022/07/27 01:34:34;;;;;;;6.90;1.02;;;;;;;16.94;79.13;100861.19;8354207;28;20029;-49
2022/07/27 01:38:35;;;;;;;3.35;1.30;;;;;;;16.85;79.48;100868.56;8357700;28;20055;-49
2022/07/27 01:42:35;;;;;;;7.53;1.58;;;;;;;16.86;79.87;100880.31;8358398;28;20059;-51
2022/07/27 01:46:35;;;;;;;8.13;1.20;;;;;;;16.84;79.87;100869.56;8357985;28;20041;-49
2022/07/27 01:50:36;;;;;;;9.25;1.80;;;;;;;16.88;79.90;100868.22;8355417;28;20311;-49
2022/07/27 01:54:36;;;;;;;3.90;1.00;;;;;;;16.85;80.70;100867.69;8356949;28;20075;-49
2022/07/27 01:58:38;;;;;;;7.30;1.17;;;;;;;16.92;80.94;100874.16;8358710;28;20063;-51
2022/07/27 02:02:39;;;;;;;14.20;1.85;;;;;;;16.84;81.57;100885.13;8358566;28;20279;-50
2022/07/27 02:06:40;;;;;;;1.85;1.02;;;;;;;16.86;81.95;100875.72;8358507;28;20437;-52
2022/07/27 02:12:34;;;;;;;7.03;1.33;;;;;;;16.75;81.36;100867.88;8358754;28;22183;-52
2022/07/27 02:15:07;;;;;;;3.47;1.10;;;;;;;16.74;80.96;100866.16;8356774;28;20412;-52
2022/07/27 02:19:08;;;;;;;3.63;0.95;;;;;;;16.66;81.52;100862.59;8359048;28;20040;-52
2022/07/27 02:23:08;;;;;;;4.13;1.20;;;;;;;16.55;81.92;100865.66;8358718;28;20045;-49
2022/07/27 02:27:08;;;;;;;4.63;1.20;;;;;;;16.44;82.77;100869.56;8358377;28;20846;-49
2022/07/27 02:31:09;;;;;;;7.05;1.50;;;;;;;16.36;83.04;100871.41;8357388;28;20499;-50
2022/07/27 02:35:09;;;;;;;8.18;1.08;;;;;;;16.26;83.69;100866.13;8357784;28;20040;-51
2022/07/27 02:39:10;;;;;;;3.83;1.33;;;;;;;16.24;83.91;100864.56;8357015;28;20041;-52
2022/07/27 02:43:11;;;;;;;4.60;1.63;;;;;;;16.34;83.81;100867.97;8357484;28;20120;-49
2022/07/27 02:47:12;;;;;;;5.00;1.42;;;;;;;16.14;84.39;100870.19;8357667;28;20267;-49
2022/07/27 02:51:13;;;;;;;6.70;2.40;;;;;;;16.00;85.25;100875.44;8357299;28;20110;-51
2022/07/27 02:55:14;;;;;;;4.38;1.17;;;;;;;15.92;85.58;100868.06;8358105;28;20036;-50
2022/07/27 02:59:14;;;;;;;6.43;1.27;;;;;;;16.00;85.52;100869.97;8357429;28;20033;-49
2022/07/27 03:03:15;;;;;;;7.07;1.10;;;;;;;15.94;85.85;100870.63;8355112;28;20044;-49
2022/07/27 03:07:15;;;;;;;3.83;1.60;;;;;;;15.81;86.26;100883.91;8356486;28;20033;-53
2022/07/27 03:11:15;;;;;;;4.90;1.13;;;;;;;15.70;86.63;100883.19;8356826;28;20033;-49
2022/07/27 03:15:16;;;;;;;6.18;1.05;;;;;;;15.64;87.54;100889.28;8355070;28;20512;-49
2022/07/27 03:19:16;;;;;;;2.30;1.05;;;;;;;15.55;88.22;100876.66;8355825;28;20554;-50
2022/07/27 03:23:17;;;;;;;5.28;1.25;;;;;;;15.47;88.66;100879.31;8354577;28;20115;-50
2022/07/27 03:27:17;;;;;;;8.43;1.50;;;;;;;15.40;89.13;100878.28;8356011;28;20110;-50
2022/07/27 03:31:18;;;;;;;3.60;1.30;;;;;;;15.35;89.71;100880.63;8355712;28;20136;-52
2022/07/27 03:35:18;;;;;;;7.28;1.77;;;;;;;15.33;89.63;100889.94;8355513;28;20037;-52
2022/07/27 03:39:19;;;;;;;3.85;1.45;;;;;;;15.29;89.95;100892.16;8353913;28;20041;-51
2022/07/27 03:43:19;;;;;;;4.32;1.50;;;;;;;15.14;90.18;100893.78;8355435;28;20032;-49
2022/07/27 03:47:20;;;;;;;6.38;1.80;;;;;;;15.06;90.58;100895.56;8355605;28;20036;-49
2022/07/27 03:51:21;;;;;;;3.78;1.67;;;;;;;14.99;91.11;100889.94;8355691;28;20044;-49
2022/07/27 03:55:22;;;;;;;3.53;1.30;;;;;;;14.90;91.37;100890.00;8354505;28;20037;-48
2022/07/27 03:59:22;;;;;;;4.47;1.48;;;;;;;14.79;91.97;100907.47;8354010;28;20029;-47
2022/07/27 04:03:23;;;;;;;6.63;1.43;;;;;;;14.67;92.71;100900.53;8355339;28;20044;-51
2022/07/27 04:07:23;;;;;;;6.55;1.80;;;;;;;14.68;92.64;100901.41;8355218;28;20756;-48
2022/07/27 04:11:24;;;;;;;5.00;1.65;;;;;;;14.90;91.93;100907.22;8352638;28;20041;-48
2022/07/27 04:15:24;;;;;;;8.05;1.73;;;;;;;15.00;91.38;100912.53;8343413;28;20041;-49
2022/07/27 04:19:25;;;;;;;9.32;1.52;;;;;;;15.07;90.94;100909.03;8353457;28;20340;-48
2022/07/27 04:23:25;;;;;;;6.88;1.30;;;;;;;14.95;91.14;100915.75;8354125;28;20498;-49
2022/07/27 04:27:25;;;;;;;4.15;1.35;;;;;;;15.00;91.00;100913.41;8347659;28;20322;-49
2022/07/27 04:31:26;;;;;;;3.85;1.83;;;;;;;15.05;90.96;100916.53;8353528;28;20041;-52
2022/07/27 04:35:26;;;;;;;11.30;1.67;;;;;;;15.24;90.34;100924.47;8353309;28;20057;-51
2022/07/27 04:39:27;;;;;;;5.60;1.80;;;;;;;15.37;89.43;100916.75;8353305;28;20828;-48
2022/07/27 04:43:27;;;;;;;10.50;2.25;;;;;;;15.40;89.04;100924.59;8352802;28;20589;-49
2022/07/27 04:47:27;;;;;;;3.05;1.80;;;;;;;15.58;89.38;100919.06;8354437;28;20158;-50
2022/07/27 04:51:28;;;;;;;15.98;2.05;;;;;;;15.55;88.63;100920.25;8354663;28;20068;-51
2022/07/27 04:55:28;;;;;;;18.00;2.25;;;;;;;15.64;88.46;100924.72;8354074;28;20029;-49
2022/07/27 04:59:29;;;;;;;20.73;2.58;;;;;;;15.66;88.53;100927.28;8352813;28;20452;-50
2022/07/27 05:03:30;;;;;;;14.63;2.00;;;;;;;15.74;87.72;100920.00;8356412;28;20060;-49
2022/07/27 05:07:30;;;;;;;7.63;2.28;;;;;;;15.74;87.78;100928.19;8350941;28;20034;-51
2022/07/27 05:11:31;;;;;;;6.32;1.65;;;;;;;15.91;87.03;100936.41;8359129;28;20040;-53
2022/07/27 05:15:31;;;;;;;11.05;1.95;;;;;;;16.08;87.27;100932.75;8360065;28;20152;-52
2022/07/27 05:19:32;;;;;;;11.45;1.83;;;;;;;16.17;86.11;100931.75;8357809;28;20040;-49
2022/07/27 05:23:33;;;;;;;10.00;2.20;;;;;;;16.17;85.94;100932.63;8358328;28;20037;-51
2022/07/27 05:27:34;;;;;;;6.38;1.77;;;;;;;16.40;85.35;100927.34;8357509;28;20413;-52
2022/07/27 05:31:35;;;;;;;6.32;1.83;;;;;;;16.44;84.57;100935.06;8356068;28;20501;-50
2022/07/27 05:35:35;;;;;;;6.95;1.63;;;;;;;16.56;84.13;100938.34;8356886;28;20413;-49
2022/07/27 05:39:36;;;;;;;14.38;2.13;;;;;;;16.61;83.70;100952.34;8356062;28;20382;-49
2022/07/27 05:43:36;;;;;;;12.00;1.80;;;;;;;16.95;83.12;100950.31;8357955;28;20432;-52
2022/07/27 05:47:38;;;;;;;9.02;1.52;;;;;;;17.21;81.27;100960.03;8359345;28;20515;-49
2022/07/27 05:51:38;;;;;;;9.43;1.70;;;;;;;17.05;81.75;100967.41;8358035;28;20049;-49
2022/07/27 05:55:39;;;;;;;10.45;1.90;;;;;;;17.08;81.46;100972.50;8358639;28;20102;-51
2022/07/27 05:59:39;;;;;;;7.80;2.05;;;;;;;17.07;81.54;100970.78;8357770;28;20059;-52
2022/07/27 06:03:40;;;;;;;8.70;2.45;;;;;;;17.47;80.86;100984.44;8359026;28;20041;-50
2022/07/27 06:08:12;;;;;;;4.65;1.77;;;;;;;17.38;80.47;100979.97;8358430;28;20036;-50
2022/07/27 06:12:01;;;;;;;10.50;2.47;;;;;;;17.51;79.55;100983.94;8383424;28;20052;-49
2022/07/27 06:16:02;;;;;;;10.27;1.93;;;;;;;17.58;80.14;100981.38;8391432;28;20037;-53
2022/07/27 06:20:05;;;;;;;9.63;2.00;;;;;;;17.51;80.29;100975.72;8391500;28;20278;-49
2022/07/27 06:24:05;;;;;;;9.25;2.30;;;;;;;17.77;79.10;100980.09;8383034;28;20032;-51
2022/07/27 06:28:06;;;;;;;8.65;3.33;;;;;;;17.81;78.70;100978.75;8389802;28;20033;-51
2022/07/27 06:32:06;;;;;;;9.40;2.88;;;;;;;18.03;78.33;100981.56;8389665;28;20044;-50
2022/07/27 06:36:08;;;;;;;18.50;3.50;;;;;;;17.96;77.67;100986.03;8390578;28;20549;-49
2022/07/27 06:40:12;;;;;;;9.35;3.30;;;;;;;18.09;77.59;100985.47;8390478;28;20052;-50
2022/07/27 06:44:12;;;;;;;11.05;2.80;;;;;;;18.16;77.01;100987.31;8388780;28;20047;-50
2022/07/27 06:48:13;;;;;;;8.52;3.08;;;;;;;18.17;76.82;100985.44;8389739;28;20033;-52
2022/07/27 06:52:13;;;;;;;7.53;2.85;;;;;;;18.36;76.95;100977.63;8389077;28;20032;-50
2022/07/27 06:56:14;;;;;;;7.25;3.13;;;;;;;18.24;76.31;100987.25;8390625;28;20388;-50
2022/07/27 07:00:15;;;;;;;10.38;3.03;;;;;;;18.46;76.04;100989.25;8382379;28;20085;-49
2022/07/27 07:04:15;;;;;;;12.80;3.88;;;;;;;18.61;74.87;100983.84;8389881;28;20028;-53
2022/07/27 07:08:16;;;;;;;13.10;4.57;;;;;;;18.48;74.86;100980.88;8390316;28;20032;-49
2022/07/27 07:12:17;;;;;;;12.85;3.72;;;;;;;18.83;74.04;100985.75;8389588;28;20025;-50
2022/07/27 07:16:17;;;;;;;13.10;3.33;;;;;;;18.93;73.71;100986.34;8388897;28;20036;-50
2022/07/27 07:20:18;;;;;;;10.25;3.28;;;;;;;19.02;71.91;100986.13;8377315;28;20036;-50
2022/07/27 07:24:18;;;;;;;11.18;4.25;;;;;;;18.38;72.98;100992.03;8384250;28;20032;-50
2022/07/27 07:28:20;;;;;;;8.02;3.50;;;;;;;18.20;73.76;100994.13;8386502;28;20550;-52
2022/07/27 07:32:21;;;;;;;14.00;2.97;;;;;;;18.67;73.00;100996.84;8387594;28;20040;-53
2022/07/27 07:36:22;;;;;;;12.35;2.78;;;;;;;18.70;70.88;100985.50;8386738;28;20041;-50
2022/07/27 07:40:22;;;;;;;9.88;2.25;;;;;;;18.63;71.82;100979.91;8387698;28;20037;-49
2022/07/27 07:44:22;;;;;;;8.50;2.22;;;;;;;18.27;72.52;100989.66;8384447;28;20056;-50
2022/07/27 07:48:23;;;;;;;5.53;1.92;;;;;;;19.04;71.64;100978.56;8387049;28;20053;-52
2022/07/27 07:52:23;;;;;;;9.75;3.30;;;;;;;19.74;69.11;100986.50;8386235;28;20086;-53
2022/07/27 07:56:24;;;;;;;8.73;2.13;;;;;;;19.99;67.37;100980.53;8376851;28;20516;-51
2022/07/27 08:00:25;;;;;;;8.05;2.25;;;;;;;19.34;68.58;100991.34;8378108;28;20271;-52
2022/07/27 08:04:25;;;;;;;5.63;2.08;;;;;;;19.44;68.83;101002.94;8378424;28;20436;-52
2022/07/27 08:08:26;;;;;;;5.38;2.42;;;;;;;19.38;67.87;100992.69;8378387;28;20818;-53
2022/07/27 08:12:27;;;;;;;15.95;3.45;;;;;;;19.39;68.35;100994.41;8379166;28;20040;-51
2022/07/27 08:16:27;;;;;;;9.45;2.60;;;;;;;18.97;68.90;100995.94;8380318;28;20032;-50
2022/07/27 08:20:27;;;;;;;9.35;2.05;;;;;;;19.05;68.67;101002.19;8377346;28;20512;-52
2022/07/27 08:24:28;;;;;;;3.38;1.67;;;;;;;19.70;66.55;101004.38;8374967;28;20040;-50
2022/07/27 08:28:28;;;;;;;10.23;1.92;;;;;;;20.37;64.95;101000.53;8376513;28;20129;-52
2022/07/27 08:32:29;;;;;;;4.75;1.55;;;;;;;20.83;63.10;101001.91;8374914;28;20851;-51
2022/07/27 08:36:29;;;;;;;2.72;1.17;;;;;;;22.17;61.57;100987.81;8376107;28;20041;-52
2022/07/27 08:40:30;;;;;;;9.20;1.33;;;;;;;20.96;61.13;100996.59;8373661;28;20063;-52
2022/07/27 08:44:32;;;;;;;6.15;1.23;;;;;;;20.54;62.30;100996.50;8376282;28;20356;-52
2022/07/27 08:48:32;;;;;;;5.97;1.60;;;;;;;20.11;63.53;101002.88;8384750;28;20105;-49
2022/07/27 08:52:33;;;;;;;5.45;1.75;;;;;;;20.23;63.69;101009.63;8382279;28;20044;-52
2022/07/27 08:56:33;;;;;;;6.75;2.10;;;;;;;20.11;63.58;101005.63;8386357;28;20040;-50
2022/07/27 09:00:36;;;;;;;3.83;1.48;;;;;;;20.55;62.94;101009.19;8377459;28;20715;-51
2022/07/27 09:04:39;;;;;;;7.97;1.38;;;;;;;20.73;61.81;101001.34;8383634;28;20040;-50
2022/07/27 09:08:40;;;;;;;5.05;1.50;;;;;;;21.07;59.92;100999.66;8380557;28;20036;-50
2022/07/27 09:12:41;;;;;;;10.30;1.60;;;;;;;20.99;62.12;101002.56;8383591;28;20035;-51
2022/07/27 09:16:41;;;;;;;5.45;1.63;;;;;;;20.45;62.25;100994.91;8380439;28;20503;-50
2022/07/27 09:20:42;;;;;;;8.20;2.58;;;;;;;20.57;61.18;100996.09;8386154;28;20093;-53
2022/07/27 09:25:01;;;;;;;3.45;1.63;;;;;;;20.82;61.42;100983.69;8385686;28;20052;-53
2022/07/27 09:29:06;;;;;;;5.32;1.73;;;;;;;21.42;60.03;100981.34;8378733;28;20036;-49
2022/07/27 09:33:06;;;;;;;9.30;1.60;;;;;;;21.92;57.99;100989.34;8382076;28;20299;-49
2022/07/27 09:37:07;;;;;;;7.30;1.85;;;;;;;22.90;56.96;100985.13;8381221;28;20047;-50
2022/07/27 09:41:07;;;;;;;5.25;1.90;;;;;;;22.30;56.81;100998.91;8381849;28;20317;-51
2022/07/27 09:45:28;;;;;;;6.13;1.77;;;;;;;21.88;57.32;101004.59;8380849;28;20097;-50
2022/07/27 09:49:31;;;;;;;4.65;1.60;;;;;;;21.96;58.30;100996.16;8380522;28;20335;-50
2022/07/27 09:53:33;;;;;;;3.70;1.48;;;;;;;23.48;55.04;100993.72;8380849;28;20036;-49
2022/07/27 09:57:51;;;;;;;5.07;1.55;;;;;;;23.77;55.38;100983.09;8378873;28;20470;-51
2022/07/27 10:01:52;;;;;;;6.55;1.45;;;;;;;23.10;56.07;100990.69;8370783;28;20462;-53
2022/07/27 10:05:53;;;;;;;4.88;1.33;;;;;;;23.53;54.18;100986.50;8364973;28;20044;-51
2022/07/27 10:09:54;;;;;;;5.35;1.40;;;;;;;24.62;52.01;100993.91;8374482;28;20060;-50
2022/07/27 10:13:55;;;;;;;4.25;1.60;;;;;;;23.36;53.33;100987.16;8378317;28;20043;-48
2022/07/27 10:18:06;;;;;;;5.70;1.85;;;;;;;22.25;55.38;100998.66;8381259;28;20051;-52
2022/07/27 10:22:07;;;;;;;8.48;1.88;;;;;;;22.19;56.13;100996.72;8378636;28;20105;-50
2022/07/27 10:26:32;;;;;;;11.65;2.05;;;;;;;21.88;57.31;100992.72;8384759;28;20090;-48
2022/07/27 10:30:33;;;;;;;5.65;1.60;;;;;;;23.24;53.66;100986.06;8384372;28;20040;-52
2022/07/27 10:34:42;;;;;;;6.00;1.10;;;;;;;25.51;50.47;100984.41;8375658;28;20037;-49
2022/07/27 10:38:47;;;;;;;5.70;1.45;;;;;;;25.29;47.70;100991.38;8377100;28;20049;-50
2022/07/27 10:42:49;;;;;;;6.18;1.58;;;;;;;23.72;50.75;101001.38;8375681;28;20102;-51
2022/07/27 10:46:54;;;;;;;4.35;1.83;;;;;;;22.54;52.77;101003.06;8378439;28;20575;-49
2022/07/27 10:50:54;;;;;;;6.45;2.13;;;;;;;22.46;54.06;100998.56;8378625;28;20068;-51
2022/07/27 10:54:55;;;;;;;6.50;1.92;;;;;;;22.73;54.31;100991.25;8377629;28;20036;-50
2022/07/27 10:58:55;;;;;;;3.65;1.65;;;;;;;23.55;52.60;101000.09;8377042;28;20040;-52
2022/07/27 11:02:56;;;;;;;7.07;2.00;;;;;;;23.98;50.86;100996.69;8376010;28;20040;-50
2022/07/27 11:07:01;;;;;;;4.40;2.05;;;;;;;25.33;49.02;100995.41;8376150;28;20113;-49
2022/07/27 11:11:03;;;;;;;11.90;2.10;;;;;;;27.34;45.98;100984.97;8382852;28;20086;-51
2022/07/27 11:15:05;;;;;;;5.03;2.17;;;;;;;28.63;45.61;100980.81;8385801;28;20036;-52
2022/07/27 11:19:06;;;;;;;5.53;1.80;;;;;;;25.99;47.59;100982.69;8384875;28;20025;-49
2022/07/27 11:23:20;;;;;;;4.95;1.60;;;;;;;23.70;51.47;100970.34;8381529;28;20036;-51
2022/07/27 11:27:20;;;;;;;5.53;2.35;;;;;;;22.98;53.28;100982.19;8385266;28;20520;-49
2022/07/27 11:31:21;;;;;;;6.20;2.72;;;;;;;22.54;53.93;100976.34;8385781;28;20420;-51
2022/07/27 11:35:23;;;;;;;6.13;1.73;;;;;;;24.68;51.71;100955.19;8384158;28;20042;-50
2022/07/27 11:39:25;;;;;;;2.90;1.60;;;;;;;29.36;43.84;100953.00;8374563;28;20489;-50
2022/07/27 11:43:43;;;;;;;6.15;2.10;;;;;;;28.67;42.48;100956.97;8385791;28;20048;-50
2022/07/27 11:47:43;;;;;;;5.95;2.00;;;;;;;26.18;46.16;100953.91;8380865;28;20135;-52
2022/07/27 11:51:46;;;;;;;5.30;2.30;;;;;;;24.60;49.66;100949.00;8385687;28;20044;-51
2022/07/27 11:55:48;;;;;;;8.10;2.13;;;;;;;23.02;51.53;100944.84;8384927;28;20643;-52
2022/07/27 11:59:49;;;;;;;3.67;1.75;;;;;;;22.65;53.23;100948.19;8385563;28;20102;-50
2022/07/27 12:04:01;;;;;;;5.33;1.40;;;;;;;23.36;52.21;100945.75;8384859;28;20163;-50
2022/07/27 12:08:02;;;;;;;2.40;1.13;;;;;;;23.28;53.20;100943.19;8381971;28;20282;-49
2022/07/27 12:12:13;;;;;;;4.53;1.45;;;;;;;23.25;51.73;100932.56;8381792;28;20544;-50
2022/07/27 12:16:17;;;;;;;4.50;1.10;;;;;;;23.65;52.66;100935.09;8383255;28;20032;-50
2022/07/27 12:20:19;;;;;;;6.25;0.90;;;;;;;23.73;50.78;100931.25;8368852;28;20041;-50
2022/07/27 12:24:32;;;;;;;4.07;1.40;;;;;;;23.06;51.56;100926.81;8341117;28;20068;-51
2022/07/27 12:28:32;;;;;;;5.78;1.17;;;;;;;23.05;52.85;100915.97;8346943;28;20612;-51
2022/07/27 12:32:38;;;;;;;8.35;1.00;;;;;;;22.93;51.24;100924.03;8344807;28;20044;-50
2022/07/27 12:36:40;;;;;;;4.85;1.23;;;;;;;22.73;51.52;100920.44;8345371;28;20210;-53
2022/07/27 12:40:47;;;;;;;4.13;1.10;;;;;;;22.69;51.85;100921.88;8343855;28;20037;-50
2022/07/27 12:44:49;;;;;;;2.72;0.75;;;;;;;22.66;51.49;100927.81;8344921;28;20049;-50
2022/07/27 12:48:50;;;;;;;2.90;0.90;;;;;;;22.54;52.00;100923.97;8344971;28;20065;-49
2022/07/27 12:52:51;;;;;;;6.00;1.10;;;;;;;22.52;51.91;100923.34;8345495;28;20076;-50
2022/07/27 12:56:51;;;;;;;6.57;1.08;;;;;;;23.11;52.41;100926.16;8344437;28;20374;-50
2022/07/27 13:00:52;;;;;;;3.53;1.10;;;;;;;23.45;49.47;100916.88;8344221;28;20567;-51
2022/07/27 13:04:53;;;;;;;3.28;1.17;;;;;;;22.96;51.72;100923.63;8340639;28;20097;-50
2022/07/27 13:08:54;;;;;;;3.45;0.90;;;;;;;22.93;53.28;100921.28;8386048;28;20429;-49
2022/07/27 13:12:55;;;;;;;3.67;0.80;;;;;;;22.44;52.17;100929.00;8350395;28;20041;-49
2022/07/27 13:16:56;;;;;;;4.70;1.20;;;;;;;22.35;52.39;100935.75;8344771;28;20033;-51
2022/07/27 13:20:56;;;;;;;3.83;1.67;;;;;;;22.33;52.04;100943.41;8341909;28;20036;-50
2022/07/27 13:24:57;;;;;;;2.88;0.85;;;;;;;22.43;51.62;100943.84;8344102;28;20428;-53
2022/07/27 13:28:57;;;;;;;1.92;0.90;;;;;;;22.33;51.67;100948.03;8352199;28;20124;-49
2022/07/27 13:32:59;;;;;;;2.53;0.77;;;;;;;22.48;50.87;100935.78;8344422;28;20052;-51
2022/07/27 13:37:00;;;;;;;2.60;0.80;;;;;;;22.53;51.42;100926.94;8350071;28;20386;-51
2022/07/27 13:41:00;;;;;;;3.67;0.90;;;;;;;22.72;51.70;100926.16;8351043;28;20037;-53
2022/07/27 13:45:00;;;;;;;1.73;0.90;;;;;;;22.72;50.60;100921.47;8353718;28;20541;-54
2022/07/27 13:49:01;;;;;;;3.08;0.90;;;;;;;22.66;51.06;100925.06;8355415;28;20090;-53
2022/07/27 13:53:02;;;;;;;5.55;0.90;;;;;;;22.86;51.44;100920.44;8357922;28;20033;-51
2022/07/27 13:57:02;;;;;;;3.60;1.20;;;;;;;23.26;51.52;100909.47;8355914;28;20041;-53
2022/07/27 14:01:03;;;;;;;2.38;0.90;;;;;;;23.96;51.64;100904.00;8356523;28;20061;-52
2022/07/27 14:05:03;;;;;;;5.03;0.70;;;;;;;23.66;50.63;100891.78;8355355;28;20036;-51
2022/07/27 14:09:06;;;;;;;5.80;1.33;;;;;;;23.37;50.62;100892.22;8355197;28;20639;-52
2022/07/27 14:13:10;;;;;;;3.55;1.23;;;;;;;22.98;50.61;100893.06;8354532;28;20067;-51
2022/07/27 14:17:12;;;;;;;5.40;1.23;;;;;;;22.89;51.35;100886.06;8354822;28;20131;-51
2022/07/27 14:21:12;;;;;;;5.40;1.08;;;;;;;22.53;51.38;100877.31;8354073;28;20040;-52
2022/07/27 14:25:13;;;;;;;5.40;1.40;;;;;;;22.52;51.25;100881.16;8354479;28;20045;-49
2022/07/27 14:29:14;;;;;;;7.53;1.13;;;;;;;22.69;51.37;100871.44;8353684;28;20136;-50
2022/07/27 14:33:15;;;;;;;5.63;1.47;;;;;;;22.95;50.59;100883.31;8354607;28;20029;-49
2022/07/27 14:37:16;;;;;;;1.77;0.93;;;;;;;22.89;49.39;100875.91;8355158;28;20338;-52
2022/07/27 14:41:16;;;;;;;2.50;0.65;;;;;;;23.02;50.05;100875.88;8355037;28;20029;-49
2022/07/27 14:45:17;;;;;;;1.63;0.73;;;;;;;22.93;50.44;100882.69;8354001;28;20030;-51
2022/07/27 14:49:20;;;;;;;6.05;0.93;;;;;;;22.65;50.86;100871.00;8353804;28;20116;-51
2022/07/27 14:53:20;;;;;;;2.45;0.85;;;;;;;22.55;51.61;100867.81;8353765;28;20135;-50
2022/07/27 14:57:21;;;;;;;2.97;1.13;;;;;;;22.35;51.92;100872.38;8353898;28;20245;-52
2022/07/27 15:01:22;;;;;;;3.67;0.90;;;;;;;22.29;52.00;100875.97;8354264;28;20477;-50
2022/07/27 15:05:22;;;;;;;2.28;1.20;;;;;;;22.36;52.17;100887.00;8354621;28;20400;-50
2022/07/27 15:09:25;;;;;;;3.80;1.40;;;;;;;22.36;51.48;100871.34;8347922;28;20064;-50
2022/07/27 15:13:26;;;;;;;3.20;0.90;;;;;;;22.43;50.52;100866.69;8348673;28;20639;-51
2022/07/27 15:17:26;;;;;;;3.33;0.95;;;;;;;22.46;50.51;100849.72;8350928;28;20044;-49
2022/07/27 15:21:27;;;;;;;3.15;0.80;;;;;;;22.39;50.31;100859.03;8352861;28;20489;-52
2022/07/27 15:25:27;;;;;;;4.03;1.10;;;;;;;22.42;50.06;100864.97;8340317;28;20098;-52
2022/07/27 15:29:28;;;;;;;5.30;1.30;;;;;;;22.51;49.53;100851.91;8347278;28;20044;-50
2022/07/27 15:33:28;;;;;;;4.00;0.80;;;;;;;22.79;49.53;100853.41;8336742;28;20292;-49
2022/07/27 15:37:28;;;;;;;2.97;0.60;;;;;;;22.66;49.01;100844.28;8340793;28;20485;-51
2022/07/27 15:41:29;;;;;;;2.50;0.60;;;;;;;22.30;48.25;100850.13;8345287;28;20497;-50
2022/07/27 15:45:29;;;;;;;1.88;0.60;;;;;;;22.11;49.15;100834.38;8346244;28;20298;-53
2022/07/27 15:49:30;;;;;;;3.88;0.70;;;;;;;22.31;48.73;100835.28;8345826;28;20121;-49
2022/07/27 15:53:30;;;;;;;2.53;0.95;;;;;;;22.49;49.04;100824.50;8345801;28;20355;-53
2022/07/27 15:57:31;;;;;;;6.68;1.25;;;;;;;22.44;48.94;100828.94;8344815;28;20555;-53
2022/07/27 16:01:32;;;;;;;4.20;1.00;;;;;;;22.39;49.69;100815.81;8346111;28;20037;-50
2022/07/27 16:05:33;;;;;;;2.10;1.10;;;;;;;22.49;49.50;100821.75;8347443;28;20090;-52
2022/07/27 16:09:35;;;;;;;2.42;1.10;;;;;;;22.46;48.77;100821.31;8345892;28;20068;-51
2022/07/27 16:13:36;;;;;;;4.03;1.45;;;;;;;22.37;48.82;100815.16;8344302;28;20113;-52
2022/07/27 16:17:36;;;;;;;3.07;1.20;;;;;;;22.46;48.33;100810.28;8361183;28;20039;-53
2022/07/27 16:21:37;;;;;;;1.40;1.02;;;;;;;22.40;48.44;100800.97;8363023;28;20284;-50
2022/07/27 16:25:38;;;;;;;2.28;1.30;;;;;;;22.78;48.16;100804.81;8346837;28;20461;-52
2022/07/27 16:29:38;;;;;;;2.85;0.98;;;;;;;22.62;48.07;100808.00;8351593;28;20048;-52
2022/07/27 16:33:41;;;;;;;3.88;1.73;;;;;;;22.56;48.16;100811.59;8352664;28;20476;-50
2022/07/27 16:37:41;;;;;;;2.15;1.13;;;;;;;22.56;48.33;100817.13;8352020;28;20056;-51
2022/07/27 16:41:42;;;;;;;2.45;0.90;;;;;;;22.53;47.73;100801.00;8349503;28;20041;-49
2022/07/27 16:45:42;;;;;;;3.30;1.15;;;;;;;22.47;47.70;100796.31;8348772;28;20052;-51
2022/07/27 16:49:43;;;;;;;5.28;1.80;;;;;;;22.48;47.91;100798.00;8351487;28;20057;-49
2022/07/27 16:53:46;;;;;;;9.32;1.77;;;;;;;22.57;49.27;100796.75;8350464;28;20052;-51
2022/07/27 16:57:47;;;;;;;4.53;1.55;;;;;;;22.58;47.77;100809.50;8351962;28;20056;-50
2022/07/27 17:01:47;;;;;;;5.43;1.70;;;;;;;22.43;47.56;100803.31;8350919;28;20637;-49
2022/07/27 17:05:48;;;;;;;5.50;1.48;;;;;;;22.55;48.10;100807.16;8351885;28;20060;-50
2022/07/27 17:09:49;;;;;;;5.03;1.17;;;;;;;22.31;47.92;100807.75;8355709;28;20041;-53
2022/07/27 17:13:49;;;;;;;3.65;1.50;;;;;;;22.28;49.12;100815.56;8357987;28;20102;-50
2022/07/27 17:17:50;;;;;;;3.20;1.50;;;;;;;22.09;48.99;100819.97;8350393;28;20049;-49
2022/07/27 17:21:50;;;;;;;3.63;1.02;;;;;;;21.99;49.20;100814.00;8352770;28;20041;-49
2022/07/27 17:25:51;;;;;;;3.50;1.87;;;;;;;22.08;49.33;100806.41;8357405;28;20051;-50
2022/07/27 17:29:52;;;;;;;3.85;1.42;;;;;;;22.06;49.65;100812.13;8356354;28;20795;-50
2022/07/27 17:33:52;;;;;;;4.18;1.67;;;;;;;22.08;49.78;100811.94;8356954;28;20401;-50
2022/07/27 17:37:53;;;;;;;4.00;1.50;;;;;;;22.00;50.17;100818.47;8356760;28;20421;-50
2022/07/27 17:41:54;;;;;;;6.18;1.40;;;;;;;21.95;50.03;100818.22;8354532;28;20041;-49
2022/07/27 17:45:55;;;;;;;4.32;1.70;;;;;;;21.86;49.74;100811.22;8354375;28;20493;-54
2022/07/27 17:49:56;;;;;;;3.70;1.70;;;;;;;21.89;50.45;100813.53;8351987;28;20527;-50
2022/07/27 17:53:56;;;;;;;4.30;1.63;;;;;;;21.72;50.64;100812.19;8356446;28;20501;-52
2022/07/27 17:57:56;;;;;;;4.53;1.20;;;;;;;21.68;50.64;100810.06;8355137;28;20106;-50
2022/07/27 18:01:58;;;;;;;2.83;1.20;;;;;;;21.49;50.86;100806.16;8356052;28;20800;-51
2022/07/27 18:06:00;;;;;;;1.90;1.05;;;;;;;21.53;51.42;100812.09;8353618;28;20044;-51
2022/07/27 18:10:01;;;;;;;2.38;1.00;;;;;;;21.43;51.95;100806.13;8347770;28;20045;-49
2022/07/27 18:14:01;;;;;;;2.53;0.85;;;;;;;21.43;51.34;100809.72;8360845;28;20137;-49
2022/07/27 18:18:01;;;;;;;5.30;0.90;;;;;;;21.46;51.72;100805.72;8354867;28;20037;-52
2022/07/27 18:22:02;;;;;;;4.05;1.45;;;;;;;21.42;51.83;100809.91;8353760;28;20053;-50
2022/07/27 18:26:03;;;;;;;2.65;0.93;;;;;;;21.39;51.32;100811.19;8353248;28;20037;-49
2022/07/27 18:30:04;;;;;;;4.18;1.02;;;;;;;21.28;51.39;100808.97;8352308;28;20059;-50
2022/07/27 18:34:05;;;;;;;3.00;0.70;;;;;;;21.26;51.60;100811.09;8352082;28;20090;-51
2022/07/27 18:38:07;;;;;;;2.03;0.80;;;;;;;21.21;51.80;100806.22;8349961;28;20064;-49
2022/07/27 18:42:08;;;;;;;2.45;1.00;;;;;;;21.12;52.86;100801.06;8353802;28;20423;-52